Time;durP1;ratioP1;P1;durP2;ratioP2;P2;SDS_P1;SDS_P2;PMS_P1;PMS_P2;Temp;Humidity;BMP_temperature;BMP_pressure;BME280_temperature;BME280_humidity;BME280_pressure;Samples;Min_cycle;Max_cycle;Signal;HPM_P1;HPM_P2
2021/06/05 00:02:47;;;;;;;11.17;7.27;;;;;;;17.30;67.12;101049.77;3603253;79;25903;-89
2021/06/05 00:07:52;;;;;;;13.67;7.00;;;;;;;17.16;67.64;101039.52;3597435;79;108423;-87
2021/06/05 00:12:53;;;;;;;10.88;6.42;;;;;;;16.98;68.24;101043.01;3601839;79;32978;-88
2021/06/05 00:17:57;;;;;;;11.17;6.60;;;;;;;16.84;68.04;101040.91;3590944;79;98789;-88
2021/06/05 00:23:04;;;;;;;11.85;6.42;;;;;;;16.73;67.84;101035.98;3578880;79;26019;-88
2021/06/05 00:28:05;;;;;;;11.70;7.25;;;;;;;16.54;68.22;101033.08;3585812;79;99155;-88
2021/06/05 00:33:07;;;;;;;11.00;6.97;;;;;;;16.39;67.94;101034.31;3607810;79;25987;-88
2021/06/05 00:38:10;;;;;;;10.53;5.60;;;;;;;16.31;67.85;101024.40;3598342;80;99049;-88
2021/06/05 00:43:15;;;;;;;10.75;6.58;;;;;;;16.22;68.04;101021.23;3549961;81;33637;-89
2021/06/05 00:48:18;;;;;;;9.77;5.97;;;;;;;16.04;68.26;101030.20;3543695;80;98795;-89
2021/06/05 00:53:23;;;;;;;11.25;6.00;;;;;;;15.69;68.77;100984.43;3577101;80;31683;-88
2021/06/05 00:58:27;;;;;;;10.15;5.60;;;;;;;15.88;68.29;101020.11;3577065;79;99355;-88
2021/06/05 01:03:30;;;;;;;11.60;5.97;;;;;;;15.85;68.26;101009.79;3612667;80;32966;-88
2021/06/05 01:08:42;;;;;;;11.08;6.35;;;;;;;15.81;68.21;101011.77;3590372;80;98688;-87
2021/06/05 01:14:13;;;;;;;11.22;5.95;;;;;;;15.79;68.14;101011.39;3605422;80;32887;-89
2021/06/05 01:19:34;;;;;;;10.48;5.53;;;;;;;15.70;68.49;101008.21;3588686;80;98928;-89
2021/06/05 01:24:46;;;;;;;10.10;6.25;;;;;;;15.64;68.58;100997.92;3603691;80;32928;-88
2021/06/05 01:29:54;;;;;;;10.65;6.05;;;;;;;15.59;68.86;101000.48;3576447;80;98858;-88
2021/06/05 01:34:57;;;;;;;12.45;7.40;;;;;;;15.57;68.75;101000.09;3595863;80;33459;-88
2021/06/05 01:39:58;;;;;;;14.80;6.53;;;;;;;15.55;69.45;100999.72;3585419;78;99405;-88
2021/06/05 01:45:01;;;;;;;10.07;5.93;;;;;;;15.41;69.81;101008.02;3587618;81;25905;-88
2021/06/05 01:50:09;;;;;;;10.65;6.72;;;;;;;15.38;69.99;100996.31;3586543;79;99211;-88
2021/06/05 01:55:30;;;;;;;12.40;7.17;;;;;;;15.38;70.11;100990.77;3581885;79;32868;-89
2021/06/05 02:00:35;;;;;;;12.07;6.67;;;;;;;15.32;70.69;100984.00;3576639;79;99086;-88
2021/06/05 02:05:38;;;;;;;12.67;7.53;;;;;;;15.29;70.82;100984.81;3588170;81;26058;-89
2021/06/05 02:10:42;;;;;;;10.50;6.53;;;;;;;15.23;71.17;100982.23;3580894;79;98996;-88
2021/06/05 02:15:57;;;;;;;12.18;7.72;;;;;;;15.19;71.27;100980.63;3601294;79;32996;-88
2021/06/05 02:21:07;;;;;;;13.38;7.83;;;;;;;15.18;71.46;100979.04;3568251;80;99174;-88
2021/06/05 02:26:09;;;;;;;12.70;8.18;;;;;;;15.17;71.75;100979.66;3587764;81;33398;-88
2021/06/05 02:31:12;;;;;;;11.03;6.95;;;;;;;15.14;71.99;100979.63;3533228;81;99142;-88
2021/06/05 02:36:14;;;;;;;11.10;6.67;;;;;;;15.13;72.35;100980.23;3544628;80;32097;-88
2021/06/05 02:41:19;;;;;;;12.75;6.55;;;;;;;15.12;72.32;100973.11;3560393;80;99060;-88
2021/06/05 02:46:25;;;;;;;10.60;6.90;;;;;;;15.13;72.10;100965.56;3572196;80;32646;-88
2021/06/05 02:51:31;;;;;;;12.03;7.55;;;;;;;15.14;72.91;100964.37;3553371;80;98646;-89
2021/06/05 02:56:32;;;;;;;;;;;;;;;15.19;72.03;100957.05;3552547;81;25911;-88
2021/06/05 03:01:35;;;;;;;9.97;5.70;;;;;;;15.23;73.27;100957.27;3560973;80;84973;-88
2021/06/05 03:06:36;;;;;;;12.82;7.15;;;;;;;15.27;72.91;100952.50;3572174;80;34616;-88
2021/06/05 03:11:46;;;;;;;12.10;7.30;;;;;;;15.32;73.28;100946.56;3545264;81;98948;-88
2021/06/05 03:16:47;;;;;;;10.98;6.37;;;;;;;15.39;73.87;100945.22;3573716;80;32923;-88
2021/06/05 03:21:48;;;;;;;10.60;6.30;;;;;;;15.47;73.54;100937.08;3560839;78;99160;-88
2021/06/05 03:26:53;;;;;;;11.47;7.60;;;;;;;15.57;73.53;100942.42;3567657;81;26066;-90
2021/06/05 03:31:55;;;;;;;13.37;7.47;;;;;;;15.64;74.51;100936.88;3541460;81;98763;-88
2021/06/05 03:36:56;;;;;;;16.45;8.38;;;;;;;15.72;74.53;100931.50;3531684;81;31361;-89
2021/06/05 03:41:57;;;;;;;11.87;7.37;;;;;;;15.79;74.50;100935.06;3504257;81;99143;-89
2021/06/05 03:46:58;;;;;;;13.37;7.40;;;;;;;15.88;74.16;100938.22;3529781;81;25996;-88
2021/06/05 03:52:00;;;;;;;15.00;8.27;;;;;;;15.94;73.50;100938.01;3482469;81;98650;-88
2021/06/05 03:57:01;;;;;;;11.90;6.80;;;;;;;16.01;73.16;100951.06;3505349;82;25919;-89
2021/06/05 04:02:03;;;;;;;13.30;7.20;;;;;;;16.08;72.82;100949.05;3512742;80;99193;-89
2021/06/05 04:07:09;;;;;;;13.60;6.70;;;;;;;16.14;73.91;100950.84;3525718;81;26348;-89
2021/06/05 04:12:11;;;;;;;13.22;7.95;;;;;;;16.19;74.10;100949.81;3494324;81;98796;-88
2021/06/05 04:17:15;;;;;;;12.40;7.90;;;;;;;16.27;73.42;100944.44;3526628;82;32986;-87
2021/06/05 04:22:16;;;;;;;12.13;8.33;;;;;;;16.35;74.86;100934.88;3450925;80;98604;-89
2021/06/05 04:27:17;;;;;;;11.27;6.90;;;;;;;16.42;75.52;100939.06;3457562;82;26904;-88
2021/06/05 04:32:18;;;;;;;10.63;6.70;;;;;;;16.58;74.55;100942.13;3484622;81;98545;-89
2021/06/05 04:37:19;;;;;;;11.90;7.70;;;;;;;16.77;74.61;100940.84;3486715;82;25844;-88
2021/06/05 04:42:20;;;;;;;15.40;9.03;;;;;;;16.99;73.78;100934.74;3513345;81;99096;-88
2021/06/05 04:47:21;;;;;;;14.87;10.27;;;;;;;17.21;73.65;100937.56;3497671;81;26985;-89
2021/06/05 04:52:24;;;;;;;18.67;11.50;;;;;;;17.38;73.49;100938.63;3512815;81;99059;-88
2021/06/05 04:57:25;;;;;;;14.67;10.40;;;;;;;17.53;72.80;100940.90;3539049;81;26244;-93
2021/06/05 05:02:27;;;;;;;17.27;10.83;;;;;;;17.71;72.37;100933.78;3504631;81;99109;-94
2021/06/05 05:07:28;;;;;;;18.77;12.07;;;;;;;17.88;71.88;100940.54;3512102;82;25923;-94
2021/06/05 05:12:30;;;;;;;17.07;12.30;;;;;;;18.09;71.93;100943.09;3520712;79;99225;-90
2021/06/05 05:17:35;;;;;;;17.80;13.03;;;;;;;18.33;71.93;100937.89;3554224;80;25952;-89
2021/06/05 05:22:38;;;;;;;17.80;12.23;;;;;;;18.83;72.00;100931.83;3563248;80;98674;-90
2021/06/05 05:27:39;;;;;;;15.58;11.08;;;;;;;19.35;71.07;100938.59;3545421;79;99288;-90
2021/06/05 05:32:55;;;;;;;;;;;;;;;;;;;;;
2021/06/05 05:37:48;;;;;;;16.52;11.43;;;;;;;20.89;68.47;100945.40;3495007;80;98872;-91
2021/06/05 05:42:49;;;;;;;16.97;10.60;;;;;;;21.70;68.35;100942.80;3513630;81;29175;-92
2021/06/05 05:47:51;;;;;;;14.30;9.67;;;;;;;22.55;66.93;100953.27;3506788;80;99166;-90
2021/06/05 05:52:55;;;;;;;14.35;9.25;;;;;;;23.31;63.74;100951.30;3496633;81;32920;-90
2021/06/05 05:58:04;;;;;;;13.98;9.85;;;;;;;24.01;61.08;100965.19;3475774;79;99047;-89
2021/06/05 06:03:07;;;;;;;13.78;9.23;;;;;;;24.32;59.32;100963.86;3504729;81;32987;-88
2021/06/05 06:08:14;;;;;;;15.35;9.13;;;;;;;24.98;58.95;100961.95;3501908;78;98760;-91
2021/06/05 06:13:17;;;;;;;15.70;10.08;;;;;;;25.49;57.12;100968.73;3497222;81;33461;-90
2021/06/05 06:18:25;;;;;;;12.65;8.48;;;;;;;25.86;55.14;100970.38;3495820;80;99228;-92
2021/06/05 06:23:30;;;;;;;12.30;8.03;;;;;;;26.35;54.86;100962.58;3513898;81;33465;-90
2021/06/05 06:28:36;;;;;;;13.03;8.43;;;;;;;26.85;53.47;100973.97;3494351;80;98808;-89
2021/06/05 06:33:39;;;;;;;10.75;7.35;;;;;;;26.97;51.36;100970.81;3514717;81;25905;-90
2021/06/05 06:38:44;;;;;;;12.28;7.12;;;;;;;27.23;51.33;100967.11;3503235;80;98788;-94
2021/06/05 06:43:46;;;;;;;13.93;7.78;;;;;;;27.65;50.31;100972.08;3512228;81;26594;-91
2021/06/05 06:48:53;;;;;;;12.07;7.35;;;;;;;27.81;49.52;100972.30;3511633;80;98789;-93
2021/06/05 06:53:55;;;;;;;10.48;7.33;;;;;;;28.07;48.02;100982.63;3507902;82;25901;-91
2021/06/05 06:58:57;;;;;;;12.33;6.40;;;;;;;28.24;47.65;100971.66;3498533;79;98993;-94
2021/06/05 07:03:58;;;;;;;10.75;6.47;;;;;;;28.48;46.48;100970.36;3517268;81;25928;-90
2021/06/05 07:09:02;;;;;;;13.55;6.65;;;;;;;28.38;44.85;100965.28;3508585;78;99000;-95
2021/06/05 07:14:06;;;;;;;10.70;7.20;;;;;;;28.19;44.27;100968.08;3512274;82;26462;-88
2021/06/05 07:19:07;;;;;;;13.60;6.55;;;;;;;28.45;41.86;100967.07;3504432;77;98896;-91
2021/06/05 07:24:09;;;;;;;11.73;6.67;;;;;;;28.61;42.57;100963.00;3506714;81;25888;-90
2021/06/05 07:29:12;;;;;;;13.25;7.03;;;;;;;28.79;42.52;100970.67;3507374;79;98921;-93
2021/06/05 07:34:15;;;;;;;10.18;7.00;;;;;;;29.02;41.87;100966.97;3511161;81;26258;-93
2021/06/05 07:39:20;;;;;;;15.25;7.60;;;;;;;28.80;40.84;100966.56;3471951;80;99299;-88
2021/06/05 07:44:22;;;;;;;10.93;6.70;;;;;;;28.90;42.09;100960.15;3509683;81;25977;-92
2021/06/05 07:49:31;;;;;;;12.82;8.43;;;;;;;29.35;41.09;100966.06;3504494;80;99071;-95
2021/06/05 07:54:32;;;;;;;9.03;6.42;;;;;;;29.73;39.91;100963.66;3510365;82;26537;-85
2021/06/05 07:59:33;;;;;;;10.53;7.58;;;;;;;29.78;39.97;100961.53;3511533;80;98924;-94
2021/06/05 08:04:34;;;;;;;11.97;7.15;;;;;;;29.91;37.89;100967.66;3512017;82;33063;-91
2021/06/05 08:09:35;;;;;;;12.47;6.85;;;;;;;29.68;38.03;100957.27;3507550;80;98751;-89
2021/06/05 08:14:36;;;;;;;9.90;6.20;;;;;;;29.67;38.00;100959.34;3507193;82;32970;-92
2021/06/05 08:19:37;;;;;;;14.50;7.10;;;;;;;30.25;38.44;100954.02;3495490;80;98748;-92
2021/06/05 08:24:38;;;;;;;13.28;8.33;;;;;;;30.83;37.77;100943.00;3506022;82;32994;-92
2021/06/05 08:29:39;;;;;;;11.78;7.87;;;;;;;31.24;36.31;100952.13;3496388;81;98775;-90
2021/06/05 08:34:43;;;;;;;13.08;7.30;;;;;;;31.14;36.78;100955.78;3552714;81;32931;-91
2021/06/05 08:39:53;;;;;;;9.53;7.10;;;;;;;32.02;37.06;100946.37;3552099;80;99074;-93
2021/06/05 08:44:57;;;;;;;12.23;6.72;;;;;;;32.22;36.28;100945.39;3570485;81;25864;-86
2021/06/05 08:50:09;;;;;;;10.35;6.87;;;;;;;32.51;34.70;100951.45;3560954;81;98695;-87
2021/06/05 08:55:34;;;;;;;10.53;6.30;;;;;;;33.01;33.92;100941.53;3562867;81;25919;-91
2021/06/05 09:00:41;;;;;;;9.45;6.33;;;;;;;33.30;33.87;100940.33;3559506;79;99036;-86
2021/06/05 09:06:00;;;;;;;12.33;6.50;;;;;;;33.85;33.29;100936.58;3571688;80;26405;-86
2021/06/05 09:11:05;;;;;;;13.18;5.47;;;;;;;34.17;31.77;100932.00;3557623;81;98567;-85
2021/06/05 09:16:26;;;;;;;10.13;5.40;;;;;;;34.43;29.85;100938.87;3566254;81;25883;-86
2021/06/05 09:21:59;;;;;;;9.75;5.25;;;;;;;34.43;31.39;100933.16;3562771;80;98832;-89
2021/06/05 09:27:12;;;;;;;8.88;4.83;;;;;;;34.68;29.06;100921.94;3569828;81;26080;-88
2021/06/05 09:32:27;;;;;;;9.08;5.03;;;;;;;33.51;29.09;100926.55;3553704;80;98685;-93
2021/06/05 09:37:38;;;;;;;10.80;5.03;;;;;;;33.20;30.14;100918.28;3510506;82;26361;-88
2021/06/05 09:42:58;;;;;;;7.78;4.75;;;;;;;33.23;30.68;100925.15;3504586;81;99328;-94
2021/06/05 09:48:27;;;;;;;9.43;4.90;;;;;;;32.94;29.86;100920.01;3497479;79;98559;-92
2021/06/05 09:53:33;;;;;;;6.67;4.42;;;;;;;32.16;30.85;100916.91;3508118;82;25886;-90
2021/06/05 09:58:39;;;;;;;7.92;4.28;;;;;;;32.48;30.70;100914.66;3503318;80;99106;-89
2021/06/05 10:03:43;;;;;;;10.75;5.37;;;;;;;32.34;30.42;100918.51;3504794;82;26047;-92
2021/06/05 10:08:45;;;;;;;8.75;5.17;;;;;;;32.95;30.92;100914.42;3507121;80;98662;-92
2021/06/05 10:13:51;;;;;;;6.83;4.45;;;;;;;32.76;30.05;100906.26;3484239;81;25346;-94
2021/06/05 10:19:08;;;;;;;11.88;4.75;;;;;;;32.82;30.94;100917.04;3507245;80;98782;-90
2021/06/05 10:24:56;;;;;;;7.60;3.72;;;;;;;32.31;29.25;100915.28;3515866;81;26615;-91
2021/06/05 10:30:43;;;;;;;9.35;4.20;;;;;;;32.02;30.14;100894.31;3492976;79;98800;-92
2021/06/05 10:35:50;;;;;;;7.67;4.50;;;;;;;31.62;30.46;100913.96;3434821;83;25963;-89
2021/06/05 10:40:56;;;;;;;9.63;3.85;;;;;;;31.70;31.38;100912.80;3412599;83;98773;-90
2021/06/05 10:46:17;;;;;;;7.85;4.17;;;;;;;32.29;31.00;100898.70;3455465;83;26291;-86
2021/06/05 10:51:24;;;;;;;10.00;4.15;;;;;;;31.69;28.60;100911.25;3419777;83;99139;-91
2021/06/05 10:57:22;;;;;;;8.63;3.72;;;;;;;31.89;30.83;100912.53;3439267;83;25931;-95
2021/06/05 11:02:53;;;;;;;13.08;4.58;;;;;;;32.64;29.10;100908.95;3458093;81;99130;-85
2021/06/05 11:08:20;;;;;;;6.42;4.10;;;;;;;32.31;26.73;100916.70;3434599;83;98865;-95
2021/06/05 11:13:41;;;;;;;6.37;3.85;;;;;;;32.54;29.15;100899.13;3473781;82;26014;-89
2021/06/05 11:19:00;;;;;;;9.78;3.95;;;;;;;32.54;29.27;100896.27;3444626;82;98839;-90
2021/06/05 11:24:18;;;;;;;6.67;3.92;;;;;;;32.16;29.25;100901.24;3439923;83;25906;-91
2021/06/05 11:29:30;;;;;;;9.28;4.03;;;;;;;32.31;30.48;100901.03;3465568;82;98946;-89
2021/06/05 11:34:45;;;;;;;6.92;3.65;;;;;;;32.66;30.95;100894.98;3450057;82;25986;-86
2021/06/05 11:39:57;;;;;;;68.05;26.00;;;;;;;32.60;30.12;100895.63;3493994;81;98959;-93
2021/06/05 11:45:04;;;;;;;8.90;4.70;;;;;;;32.62;31.66;100887.96;3520422;81;25848;-92
2021/06/05 11:50:25;;;;;;;9.73;5.03;;;;;;;32.13;30.45;100883.74;3529111;79;98810;-92
2021/06/05 11:55:49;;;;;;;11.12;4.20;;;;;;;32.18;30.42;100876.48;3520707;81;26574;-93
2021/06/05 12:01:10;;;;;;;6.25;4.12;;;;;;;32.59;32.11;100873.34;3495771;79;98707;-92
2021/06/05 12:06:29;;;;;;;7.45;4.87;;;;;;;32.62;30.92;100873.08;3503955;81;26462;-90
2021/06/05 12:11:37;;;;;;;7.92;4.25;;;;;;;32.51;30.45;100865.95;3479546;82;98529;-93
2021/06/05 12:16:52;;;;;;;8.43;4.22;;;;;;;32.67;30.46;100863.75;3516308;80;25995;-92
2021/06/05 12:21:53;;;;;;;4.85;3.20;;;;;;;32.96;30.10;100860.36;3421441;81;99260;-94
2021/06/05 12:27:01;;;;;;;13.53;4.03;;;;;;;33.04;29.36;100854.91;3510666;81;33005;-93
2021/06/05 12:32:27;;;;;;;7.50;3.40;;;;;;;33.30;29.33;100841.89;3498665;80;99005;-87
2021/06/05 12:37:42;;;;;;;6.47;3.30;;;;;;;33.03;28.57;100838.46;3560709;81;26122;-89
2021/06/05 12:42:48;;;;;;;8.03;3.98;;;;;;;32.54;29.02;100845.61;3561399;81;25915;-91
2021/06/05 12:47:54;;;;;;;6.47;3.27;;;;;;;32.33;29.93;100837.97;3565080;80;98573;-88
2021/06/05 12:52:56;;;;;;;6.50;3.50;;;;;;;32.86;30.04;100839.12;3564595;80;26049;-87
2021/06/05 12:58:02;;;;;;;8.25;3.85;;;;;;;33.16;30.21;100830.11;3561831;81;98807;-88
2021/06/05 13:03:11;;;;;;;8.48;3.50;;;;;;;33.24;29.14;100825.41;3571260;81;25934;-92
2021/06/05 13:08:35;;;;;;;10.55;4.22;;;;;;;33.02;29.30;100827.56;3560308;80;98824;-88
2021/06/05 13:13:37;;;;;;;7.33;3.70;;;;;;;32.92;28.72;100828.47;3562385;81;25960;-93
2021/06/05 13:18:45;;;;;;;9.35;3.72;;;;;;;32.00;27.96;100827.94;3566177;80;98716;-94
2021/06/05 13:23:51;;;;;;;9.10;3.65;;;;;;;31.61;28.53;100813.44;3572219;81;25882;-90
2021/06/05 13:28:53;;;;;;;6.78;3.50;;;;;;;31.73;28.89;100812.20;3562324;79;98645;-87
2021/06/05 13:34:20;;;;;;;6.78;3.85;;;;;;;31.71;29.29;100809.83;3561562;80;25988;-90
2021/06/05 13:39:21;;;;;;;11.22;3.65;;;;;;;31.83;30.37;100801.47;3513826;81;98657;-91
2021/06/05 13:44:22;;;;;;;7.83;3.27;;;;;;;31.86;29.42;100799.03;3511811;82;26499;-89
2021/06/05 13:49:23;;;;;;;6.70;2.80;;;;;;;31.87;28.76;100784.92;3507362;80;98765;-93
2021/06/05 13:54:24;;;;;;;4.33;2.80;;;;;;;31.96;29.39;100786.75;3515870;82;32980;-88
2021/06/05 13:59:24;;;;;;;4.70;2.70;;;;;;;31.98;30.47;100787.03;3507484;82;98596;-89
2021/06/05 14:04:25;;;;;;;5.53;3.55;;;;;;;32.17;29.90;100781.73;3515373;82;32878;-86
2021/06/05 14:09:28;;;;;;;6.28;2.75;;;;;;;31.92;28.60;100782.73;3503096;80;98969;-90
2021/06/05 14:14:29;;;;;;;4.25;2.55;;;;;;;31.54;28.77;100778.36;3517201;82;33010;-90
2021/06/05 14:19:36;;;;;;;4.67;2.67;;;;;;;31.33;28.08;100780.60;3515623;80;98565;-92
2021/06/05 14:24:51;;;;;;;5.25;3.20;;;;;;;31.35;28.85;100776.62;3515895;82;26021;-89
2021/06/05 14:29:52;;;;;;;5.00;3.05;;;;;;;31.71;29.81;100762.86;3509574;81;98845;-91
2021/06/05 14:34:55;;;;;;;4.62;2.80;;;;;;;31.18;28.15;100765.80;3497142;82;25885;-89
2021/06/05 14:39:56;;;;;;;5.37;3.02;;;;;;;30.65;29.24;100766.36;3502230;80;98783;-88
2021/06/05 14:44:57;;;;;;;7.15;3.77;;;;;;;30.64;30.09;100764.17;3490187;81;32917;-89
2021/06/05 14:49:58;;;;;;;7.17;3.58;;;;;;;30.64;30.96;100764.17;3508328;80;98897;-86
2021/06/05 14:54:59;;;;;;;7.00;3.25;;;;;;;30.76;30.32;100764.41;3489491;82;33005;-89
2021/06/05 15:00:00;;;;;;;6.97;3.42;;;;;;;30.09;30.40;100762.94;3469910;80;98891;-92
2021/06/05 15:05:02;;;;;;;7.97;3.52;;;;;;;29.84;30.48;100770.19;3517715;81;32994;-86
2021/06/05 15:10:05;;;;;;;8.10;3.67;;;;;;;29.61;31.90;100772.66;3504434;80;99031;-86
2021/06/05 15:15:09;;;;;;;4.62;2.85;;;;;;;29.37;32.30;100764.23;3504048;81;26561;-91
2021/06/05 15:20:13;;;;;;;8.93;4.43;;;;;;;29.18;32.88;100757.28;3470110;80;98793;-93
2021/06/05 15:25:20;;;;;;;7.37;3.93;;;;;;;29.22;31.77;100758.64;3510173;81;25921;-88
2021/06/05 15:30:26;;;;;;;5.17;3.22;;;;;;;28.77;32.45;100762.77;3498486;81;98938;-91
2021/06/05 15:35:30;;;;;;;7.72;3.90;;;;;;;28.74;32.88;100760.91;3526375;81;25939;-90
2021/06/05 15:40:34;;;;;;;7.07;3.63;;;;;;;28.60;32.82;100757.50;3561048;81;98801;-91
2021/06/05 15:45:41;;;;;;;5.90;3.62;;;;;;;28.27;32.56;100757.72;3568190;80;26435;-92
2021/06/05 15:50:42;;;;;;;6.15;3.90;;;;;;;28.04;33.25;100746.52;3557771;79;98955;-87
2021/06/05 15:55:46;;;;;;;6.58;3.92;;;;;;;27.65;33.53;100754.92;3569702;80;25908;-87
2021/06/05 16:00:47;;;;;;;7.90;3.80;;;;;;;27.28;33.81;100742.36;3563970;80;98866;-87
2021/06/05 16:05:51;;;;;;;7.55;3.70;;;;;;;26.84;34.71;100742.81;3568736;81;25846;-89
2021/06/05 16:10:52;;;;;;;5.07;3.27;;;;;;;26.65;35.44;100741.38;3557323;80;99282;-88
2021/06/05 16:16:03;;;;;;;6.47;3.15;;;;;;;26.57;35.73;100753.66;3567322;80;33077;-85
2021/06/05 16:21:12;;;;;;;6.87;3.30;;;;;;;26.46;35.58;100751.95;3561830;80;98384;-91
2021/06/05 16:26:16;;;;;;;5.40;3.15;;;;;;;26.21;34.98;100748.13;3561700;80;33058;-90
2021/06/05 16:31:21;;;;;;;9.15;4.05;;;;;;;26.19;35.70;100752.69;3559282;79;98767;-87
2021/06/05 16:36:23;;;;;;;7.73;3.67;;;;;;;26.06;36.05;100758.55;3541071;80;26785;-91
2021/06/05 16:41:29;;;;;;;9.35;3.83;;;;;;;25.95;35.85;100761.70;3477956;82;98568;-89
2021/06/05 16:46:31;;;;;;;7.22;4.15;;;;;;;25.75;36.02;100765.63;3511505;82;33556;-91
2021/06/05 16:51:31;;;;;;;6.28;3.62;;;;;;;25.54;36.19;100759.53;3499600;80;99024;-88
2021/06/05 16:56:33;;;;;;;5.60;3.20;;;;;;;25.39;36.60;100760.80;3504427;81;32896;-90
2021/06/05 17:01:37;;;;;;;8.23;3.87;;;;;;;25.35;36.75;100767.84;3500831;80;98640;-85
2021/06/05 17:06:43;;;;;;;8.93;3.47;;;;;;;25.21;36.57;100762.18;3505634;82;25835;-95
2021/06/05 17:11:45;;;;;;;6.45;3.30;;;;;;;25.04;36.41;100755.89;3535572;80;99109;-87
2021/06/05 17:16:46;;;;;;;7.45;3.37;;;;;;;24.90;36.62;100764.32;3502016;81;32961;-92
2021/06/05 17:21:48;;;;;;;14.85;3.50;;;;;;;24.79;36.10;100759.00;3500689;79;98640;-91
2021/06/05 17:26:49;;;;;;;5.58;3.10;;;;;;;24.67;36.26;100758.47;3505042;81;31531;-89
2021/06/05 17:31:56;;;;;;;5.53;2.95;;;;;;;24.54;36.72;100752.16;3499776;80;98752;-88
2021/06/05 17:36:57;;;;;;;5.35;2.85;;;;;;;24.38;37.65;100762.27;3539918;81;33037;-95
2021/06/05 17:41:58;;;;;;;6.75;4.05;;;;;;;24.20;37.75;100758.73;3531945;81;98743;-95
2021/06/05 17:46:59;;;;;;;9.73;5.58;;;;;;;24.11;37.82;100764.95;3563531;81;31418;-89
2021/06/05 17:52:01;;;;;;;10.00;6.08;;;;;;;24.05;38.34;100778.84;3564789;79;99091;-90
2021/06/05 17:57:04;;;;;;;7.00;4.00;;;;;;;23.79;38.33;100760.52;3568304;80;32375;-92
2021/06/05 18:02:07;;;;;;;9.28;4.87;;;;;;;23.78;38.68;100782.86;3552447;80;98886;-90
2021/06/05 18:07:09;;;;;;;6.65;4.33;;;;;;;23.66;39.00;100789.94;3568459;80;33196;-92
2021/06/05 18:12:16;;;;;;;10.10;5.72;;;;;;;23.55;39.63;100788.14;3554748;79;98641;-92
2021/06/05 18:17:25;;;;;;;15.48;8.35;;;;;;;23.38;39.81;100797.99;3562552;80;33459;-91
2021/06/05 18:22:26;;;;;;;9.70;5.58;;;;;;;23.23;39.95;100806.14;3572469;80;99491;-92
2021/06/05 18:27:27;;;;;;;8.93;4.70;;;;;;;23.14;40.16;100810.22;3567868;80;31108;-91
2021/06/05 18:32:29;;;;;;;19.12;11.83;;;;;;;22.83;41.12;100814.10;3535186;80;98781;-91
2021/06/05 18:37:30;;;;;;;17.62;11.30;;;;;;;22.83;41.12;100814.10;3505175;81;33211;-91
2021/06/05 18:42:31;;;;;;;32.60;19.87;;;;;;;22.70;41.27;100816.12;3491421;81;98885;-90
2021/06/05 18:47:33;;;;;;;41.30;26.17;;;;;;;22.51;41.68;100823.52;3497835;82;32432;-89
2021/06/05 18:52:34;;;;;;;11.40;6.47;;;;;;;22.38;41.86;100824.12;3492343;81;98885;-94
2021/06/05 18:57:36;;;;;;;10.90;5.20;;;;;;;22.21;42.37;100831.05;3492953;81;30125;-91
2021/06/05 19:02:39;;;;;;;10.77;5.77;;;;;;;22.03;42.63;100830.00;3493051;82;98949;-92
2021/06/05 19:07:45;;;;;;;10.58;5.08;;;;;;;21.85;43.25;100838.14;3486329;81;98765;-91
2021/06/05 19:12:46;;;;;;;9.35;4.33;;;;;;;21.69;44.29;100841.77;3421201;84;33587;-90
2021/06/05 19:17:48;;;;;;;8.90;3.60;;;;;;;21.47;45.34;100844.94;3412859;84;99200;-89
2021/06/05 19:22:51;;;;;;;7.50;3.37;;;;;;;21.26;45.84;100860.13;3438231;84;32984;-90
2021/06/05 19:27:52;;;;;;;8.23;3.87;;;;;;;21.03;46.46;100859.69;3431572;83;108299;-89
2021/06/05 19:32:54;;;;;;;8.70;4.20;;;;;;;20.81;46.49;100862.03;3436988;83;31130;-90
2021/06/05 19:37:56;;;;;;;7.30;3.77;;;;;;;20.64;47.05;100865.41;3503941;82;99122;-92
2021/06/05 19:42:58;;;;;;;6.47;3.60;;;;;;;20.49;47.43;100873.93;3538178;81;32907;-92
2021/06/05 19:48:00;;;;;;;7.67;4.40;;;;;;;20.26;47.64;100872.64;3563258;79;99025;-91
2021/06/05 19:53:02;;;;;;;8.33;4.08;;;;;;;20.10;47.65;100873.21;3569835;81;32916;-93
2021/06/05 19:58:03;;;;;;;6.95;3.80;;;;;;;19.94;47.93;100873.88;3560146;80;98829;-92
2021/06/05 20:03:06;;;;;;;8.70;4.53;;;;;;;19.84;47.97;100867.12;3564471;80;25946;-91
2021/06/05 20:08:08;;;;;;;8.68;3.75;;;;;;;19.73;47.85;100872.13;3531785;80;98838;-90
2021/06/05 20:13:12;;;;;;;9.25;4.10;;;;;;;19.67;48.17;100878.02;3569018;80;33514;-91
2021/06/05 20:18:13;;;;;;;8.73;4.53;;;;;;;19.58;48.13;100868.81;3553948;80;98899;-91
2021/06/05 20:23:19;;;;;;;9.48;3.75;;;;;;;19.51;48.17;100875.90;3542258;80;33563;-93
2021/06/05 20:28:20;;;;;;;7.78;3.45;;;;;;;19.49;48.21;100876.14;3536750;79;98604;-91
2021/06/05 20:33:23;;;;;;;7.67;3.45;;;;;;;19.49;48.20;100882.53;3570484;81;33411;-90
2021/06/05 20:38:25;;;;;;;12.37;4.10;;;;;;;19.45;48.20;100892.97;3502511;80;98650;-91
2021/06/05 20:43:31;;;;;;;8.53;4.10;;;;;;;19.41;48.22;100886.65;3508102;82;32956;-89
2021/06/05 20:48:36;;;;;;;9.27;4.23;;;;;;;19.34;48.70;100887.41;3506903;79;98713;-89
2021/06/05 20:53:38;;;;;;;10.00;3.45;;;;;;;19.24;48.86;100897.52;3509996;81;26021;-89
2021/06/05 20:58:43;;;;;;;12.70;4.28;;;;;;;19.17;49.04;100898.20;3499802;80;99455;-90
2021/06/05 21:03:46;;;;;;;7.05;3.92;;;;;;;19.10;49.64;100896.93;3507297;82;32991;-90
2021/06/05 21:08:49;;;;;;;9.58;3.83;;;;;;;18.90;50.66;100898.83;3442757;82;98404;-90
2021/06/05 21:13:51;;;;;;;10.70;4.12;;;;;;;18.77;51.43;100903.42;3509845;81;32957;-89
2021/06/05 21:18:56;;;;;;;10.28;5.15;;;;;;;18.64;51.88;100911.56;3498295;80;99613;-89
2021/06/05 21:24:00;;;;;;;7.60;4.17;;;;;;;18.54;52.09;100909.71;3507300;82;32975;-88
2021/06/05 21:29:02;;;;;;;10.30;5.28;;;;;;;18.45;52.09;100912.24;3499834;80;99033;-89
2021/06/05 21:34:09;;;;;;;8.25;4.92;;;;;;;18.32;52.96;100900.05;3506611;81;33390;-90
2021/06/05 21:39:10;;;;;;;9.20;5.00;;;;;;;18.25;53.16;100901.52;3533450;80;99117;-87
2021/06/05 21:44:11;;;;;;;10.87;4.80;;;;;;;18.22;53.25;100911.31;3567933;81;28223;-90
2021/06/05 21:49:12;;;;;;;9.43;4.80;;;;;;;18.15;53.54;100908.00;3561484;79;99008;-88
2021/06/05 21:54:13;;;;;;;7.37;4.63;;;;;;;18.11;54.24;100912.84;3567104;81;26009;-87
2021/06/05 21:59:14;;;;;;;9.00;4.80;;;;;;;18.13;54.17;100911.02;3566996;80;98918;-88
2021/06/05 22:04:22;;;;;;;10.00;4.53;;;;;;;18.12;54.49;100913.62;3562494;80;31956;-88
2021/06/05 22:09:29;;;;;;;11.10;5.27;;;;;;;18.11;54.70;100910.06;3563773;81;98965;-87
2021/06/05 22:14:39;;;;;;;10.35;4.83;;;;;;;18.07;54.89;100912.09;3567580;81;33450;-89
2021/06/05 22:19:43;;;;;;;10.50;4.58;;;;;;;18.06;55.17;100918.07;3558622;80;99142;-88
2021/06/05 22:24:49;;;;;;;10.65;5.55;;;;;;;17.97;55.34;100917.17;3566322;81;33021;-89
2021/06/05 22:29:50;;;;;;;;;;;;;;;17.87;55.80;100911.12;3574416;79;99344;-88
2021/06/05 22:34:51;;;;;;;10.33;5.67;;;;;;;17.80;56.80;100920.95;3569689;81;26725;-88
2021/06/05 22:39:52;;;;;;;10.73;5.60;;;;;;;17.70;56.38;100911.30;3565766;79;99455;-89
2021/06/05 22:44:53;;;;;;;12.47;5.53;;;;;;;17.64;56.75;100911.56;3565987;80;32189;-88
2021/06/05 22:49:56;;;;;;;9.17;5.03;;;;;;;17.61;57.45;100911.01;3553939;79;99328;-92
2021/06/05 22:54:57;;;;;;;13.73;5.47;;;;;;;17.60;57.86;100912.22;3561290;81;26599;-89
2021/06/05 22:59:58;;;;;;;10.20;5.08;;;;;;;17.56;58.37;100908.05;3574224;80;98910;-89
2021/06/05 23:05:31;;;;;;;10.93;5.67;;;;;;;17.56;58.63;100905.89;3556201;80;25887;-90
2021/06/05 23:10:34;;;;;;;8.13;5.10;;;;;;;17.43;58.70;100886.74;3562590;79;99247;-91
2021/06/05 23:15:37;;;;;;;9.83;5.15;;;;;;;17.53;59.27;100912.27;3561935;81;32990;-88
2021/06/05 23:20:40;;;;;;;10.23;5.83;;;;;;;17.49;58.94;100911.53;3555484;80;98823;-89
2021/06/05 23:25:43;;;;;;;8.98;5.67;;;;;;;17.46;59.35;100920.69;3564739;81;33063;-88
2021/06/05 23:30:45;;;;;;;9.75;5.58;;;;;;;17.41;59.22;100908.02;3539395;80;98961;-89
2021/06/05 23:35:47;;;;;;;10.00;5.50;;;;;;;17.36;58.98;100909.81;3565405;81;33191;-88